Arlington, Vermont
Current Conditions -  °F | °C
As of 6:54 AM on Friday 24 Oct 2014 (Local Time) from KDDH Reporting Station
Light Rain Light Rain  
Wind Chill:   Ceiling: 2300
Heat Index:   Visibility: 4mi
Dew Point:   Wind: 7mph
Humidity: 93%   Direction: 320°NW
Pressure: 29.82"   Gusts: NA
Location:  43.07°N, 73.15°W
Report Text: KDDH 241054Z AUTO 32006KT 4SM -RA BR FEW017 BKN023 OVC029 06/05 A2982 RMK AO2 SLP100 P0007 T00610050
Loading
Personal Weather Stations






























Interactive Weather Map
Tropical Storm Tracking
New forecast layout! Learn more

10-Day Weather Forecast

Advertisements
Track Severe Weather on mobile